Time;durP1;ratioP1;P1;durP2;ratioP2;P2;SDS_P1;SDS_P2;PMS_P1;PMS_P2;Temp;Humidity;BMP_temperature;BMP_pressure;BME280_temperature;BME280_humidity;BME280_pressure;Samples;Min_cycle;Max_cycle;Signal;HPM_P1;HPM_P2
2022/09/01 00:00:28;;;;;;;6.13;4.15;;;;;;;;;;5020401;28;20030;-79
2022/09/01 00:02:55;;;;;;;6.32;4.20;;;;;;;;;;5024649;28;20026;-79
2022/09/01 00:05:21;;;;;;;6.07;4.10;;;;;;;;;;5025058;28;20033;-79
2022/09/01 00:07:49;;;;;;;5.95;4.45;;;;;;;;;;5023130;28;20113;-79
2022/09/01 00:10:15;;;;;;;5.90;4.13;;;;;;;;;;5024205;28;20021;-79
2022/09/01 00:12:44;;;;;;;5.80;4.03;;;;;;;;;;5006052;28;20025;-79
2022/09/01 00:15:12;;;;;;;5.40;3.85;;;;;;;;;;5024029;28;20412;-79
2022/09/01 00:17:38;;;;;;;5.50;3.92;;;;;;;;;;5023871;28;20049;-79
2022/09/01 00:20:04;;;;;;;5.28;4.05;;;;;;;;;;5022049;28;20061;-78
2022/09/01 00:22:32;;;;;;;5.45;4.10;;;;;;;;;;5024882;28;20032;-78
2022/09/01 00:25:00;;;;;;;6.25;4.38;;;;;;;;;;5020251;28;20532;-79
2022/09/01 00:27:26;;;;;;;6.82;5.10;;;;;;;;;;5010073;28;20019;-79
2022/09/01 00:29:52;;;;;;;8.13;4.50;;;;;;;;;;5015263;28;20045;-78
2022/09/01 00:32:18;;;;;;;5.68;4.00;;;;;;;;;;5024241;28;20026;-79
2022/09/01 00:34:44;;;;;;;6.75;4.28;;;;;;;;;;5023662;28;20045;-78
2022/09/01 00:37:11;;;;;;;6.03;3.55;;;;;;;;;;5023072;28;20088;-79
2022/09/01 00:39:37;;;;;;;6.93;4.20;;;;;;;;;;5021991;28;20085;-79
2022/09/01 00:42:03;;;;;;;6.18;4.13;;;;;;;;;;5024133;28;20055;-79
2022/09/01 00:44:30;;;;;;;6.85;4.03;;;;;;;;;;5024258;28;20038;-79
2022/09/01 00:46:56;;;;;;;5.93;4.22;;;;;;;;;;5022345;28;20065;-79
2022/09/01 00:49:38;;;;;;;6.32;3.97;;;;;;;;;;5023138;28;20029;-79
2022/09/01 00:52:09;;;;;;;6.43;4.07;;;;;;;;;;5006217;28;20088;-79
2022/09/01 00:54:38;;;;;;;7.78;4.60;;;;;;;;;;5023378;28;20060;-79
2022/09/01 00:57:05;;;;;;;5.28;3.65;;;;;;;;;;5018387;28;20044;-79
2022/09/01 00:59:31;;;;;;;6.15;4.00;;;;;;;;;;5009753;28;20034;-79
2022/09/01 01:01:58;;;;;;;5.00;3.58;;;;;;;;;;5011715;28;20026;-79
2022/09/01 01:04:24;;;;;;;6.05;4.03;;;;;;;;;;5027636;28;20076;-79
2022/09/01 01:07:00;;;;;;;5.45;3.45;;;;;;;;;;5025347;28;20037;-79
2022/09/01 01:09:27;;;;;;;5.93;3.70;;;;;;;;;;5027355;28;20334;-79
2022/09/01 01:11:56;;;;;;;5.90;4.03;;;;;;;;;;5024039;28;20021;-78
2022/09/01 01:14:26;;;;;;;5.65;4.10;;;;;;;;;;5025306;28;20079;-78
2022/09/01 01:16:54;;;;;;;5.80;3.80;;;;;;;;;;5023545;28;20045;-78
2022/09/01 01:25:02;;;;;;;6.65;4.22;;;;;;;;;;5022030;28;20041;-79
2022/09/01 01:27:33;;;;;;;6.43;3.90;;;;;;;;;;5024948;28;20039;-79
2022/09/01 01:30:00;;;;;;;5.65;3.90;;;;;;;;;;5023904;28;20057;-79
2022/09/01 01:32:28;;;;;;;6.63;3.85;;;;;;;;;;5025193;28;20014;-79
2022/09/01 01:34:55;;;;;;;5.85;3.65;;;;;;;;;;5026690;28;20014;-79
2022/09/01 01:37:23;;;;;;;6.70;3.55;;;;;;;;;;5025901;28;20026;-79
2022/09/01 01:39:50;;;;;;;5.85;3.67;;;;;;;;;;5027026;28;20026;-78
2022/09/01 01:42:16;;;;;;;6.95;4.25;;;;;;;;;;5024928;28;20026;-79
2022/09/01 01:44:43;;;;;;;5.63;3.65;;;;;;;;;;5018421;28;20025;-78
2022/09/01 01:47:11;;;;;;;6.55;3.80;;;;;;;;;;4997019;28;20031;-78
2022/09/01 01:49:42;;;;;;;6.75;4.00;;;;;;;;;;5025052;28;20604;-79
2022/09/01 01:52:09;;;;;;;5.90;3.58;;;;;;;;;;5009150;28;20033;-78
2022/09/01 01:54:36;;;;;;;6.75;3.88;;;;;;;;;;5024512;28;20018;-79
2022/09/01 01:57:03;;;;;;;5.63;3.70;;;;;;;;;;5015538;28;20038;-78
2022/09/01 01:59:29;;;;;;;5.78;3.50;;;;;;;;;;5025850;28;20098;-80
2022/09/01 02:01:56;;;;;;;5.82;3.30;;;;;;;;;;5009364;28;20121;-79
2022/09/01 02:04:23;;;;;;;5.18;3.28;;;;;;;;;;5026130;28;20318;-79
2022/09/01 02:06:50;;;;;;;6.90;3.83;;;;;;;;;;5024354;28;20049;-78
2022/09/01 02:09:17;;;;;;;5.75;4.70;;;;;;;;;;5018006;28;20114;-79
2022/09/01 02:11:44;;;;;;;6.30;3.70;;;;;;;;;;5018641;28;20093;-79
2022/09/01 02:14:12;;;;;;;5.55;3.53;;;;;;;;;;5016431;28;20053;-79
2022/09/01 02:16:38;;;;;;;7.95;3.53;;;;;;;;;;5016455;28;20025;-79
2022/09/01 02:19:06;;;;;;;6.40;3.58;;;;;;;;;;5004767;28;20494;-79
2022/09/01 02:21:32;;;;;;;7.13;3.55;;;;;;;;;;5016317;28;20030;-79
2022/09/01 02:24:00;;;;;;;5.65;3.17;;;;;;;;;;4998326;28;20084;-78
2022/09/01 02:26:30;;;;;;;4.93;2.90;;;;;;;;;;5016630;28;20497;-79
2022/09/01 02:28:57;;;;;;;6.55;3.80;;;;;;;;;;5015976;28;20040;-79
2022/09/01 02:31:23;;;;;;;5.72;3.25;;;;;;;;;;5013867;28;20026;-79
2022/09/01 02:33:50;;;;;;;5.22;3.22;;;;;;;;;;5016675;28;20057;-79
2022/09/01 02:36:18;;;;;;;5.95;3.10;;;;;;;;;;5016412;28;20036;-79
2022/09/01 02:38:44;;;;;;;4.93;3.00;;;;;;;;;;4981007;28;20538;-79
2022/09/01 02:41:13;;;;;;;5.45;3.10;;;;;;;;;;5009786;28;20352;-79
2022/09/01 02:43:39;;;;;;;5.07;3.17;;;;;;;;;;5016522;28;20026;-79
2022/09/01 02:46:05;;;;;;;5.15;3.20;;;;;;;;;;4991878;28;21649;-78
2022/09/01 02:48:38;;;;;;;5.93;3.42;;;;;;;;;;5015428;28;20026;-79
2022/09/01 02:51:06;;;;;;;7.05;3.65;;;;;;;;;;5014020;28;20026;-79
2022/09/01 02:53:36;;;;;;;4.93;3.00;;;;;;;;;;5013213;28;20097;-79
2022/09/01 02:56:08;;;;;;;6.18;3.28;;;;;;;;;;5015646;28;20030;-79
2022/09/01 02:58:44;;;;;;;5.68;3.30;;;;;;;;;;5009851;28;20057;-79
2022/09/01 03:01:23;;;;;;;6.13;3.28;;;;;;;;;;5010904;28;20041;-79
2022/09/01 03:03:50;;;;;;;5.72;3.38;;;;;;;;;;4998776;28;20061;-79
2022/09/01 03:06:22;;;;;;;5.47;3.08;;;;;;;;;;5010252;28;20486;-79
2022/09/01 03:08:49;;;;;;;5.90;3.30;;;;;;;;;;5015017;28;20045;-79
2022/09/01 03:11:15;;;;;;;5.65;3.40;;;;;;;;;;5013654;28;20052;-79
2022/09/01 03:13:41;;;;;;;5.25;3.40;;;;;;;;;;5007072;28;20076;-79
2022/09/01 03:16:08;;;;;;;6.85;3.30;;;;;;;;;;5003590;28;20285;-79
2022/09/01 03:18:34;;;;;;;5.45;3.50;;;;;;;;;;5007929;28;20034;-80
2022/09/01 03:21:01;;;;;;;7.22;3.80;;;;;;;;;;5014808;28;20091;-79
2022/09/01 03:23:28;;;;;;;6.13;3.40;;;;;;;;;;5015261;28;20025;-79
2022/09/01 03:25:54;;;;;;;6.05;4.00;;;;;;;;;;5016784;28;20030;-79
2022/09/01 03:28:20;;;;;;;5.50;3.60;;;;;;;;;;5017842;28;20065;-79
2022/09/01 03:30:49;;;;;;;5.78;3.35;;;;;;;;;;5016003;28;20037;-80
2022/09/01 03:33:15;;;;;;;6.32;3.40;;;;;;;;;;5015423;28;20048;-80
2022/09/01 03:35:42;;;;;;;5.70;3.80;;;;;;;;;;5016843;28;20426;-80
2022/09/01 03:38:09;;;;;;;5.13;3.63;;;;;;;;;;5017581;28;20080;-80
2022/09/01 03:40:35;;;;;;;6.30;3.70;;;;;;;;;;5016572;28;20037;-80
2022/09/01 03:43:02;;;;;;;6.07;3.55;;;;;;;;;;5005296;28;20041;-79
2022/09/01 03:45:29;;;;;;;6.85;3.88;;;;;;;;;;5002623;28;20050;-80
2022/09/01 03:47:55;;;;;;;5.63;3.50;;;;;;;;;;5021945;28;20026;-80
2022/09/01 03:50:23;;;;;;;5.80;3.50;;;;;;;;;;5018911;28;20048;-80
2022/09/01 03:52:51;;;;;;;7.28;3.47;;;;;;;;;;5011682;28;20028;-80
2022/09/01 03:55:22;;;;;;;5.18;3.30;;;;;;;;;;5016535;28;20411;-80
2022/09/01 03:57:51;;;;;;;5.68;3.67;;;;;;;;;;5019828;28;20082;-80
2022/09/01 04:00:22;;;;;;;5.63;3.05;;;;;;;;;;5016917;28;20572;-80
2022/09/01 04:02:51;;;;;;;6.38;3.45;;;;;;;;;;5017157;28;20036;-80
2022/09/01 04:05:23;;;;;;;6.38;3.30;;;;;;;;;;5016718;28;20497;-80
2022/09/01 04:08:04;;;;;;;6.10;3.47;;;;;;;;;;5017888;28;20032;-80
2022/09/01 04:10:35;;;;;;;6.75;3.28;;;;;;;;;;5014789;28;20030;-79
2022/09/01 04:13:04;;;;;;;6.82;3.58;;;;;;;;;;5007576;28;20033;-80
2022/09/01 04:15:33;;;;;;;4.80;2.95;;;;;;;;;;5005199;28;20022;-80
2022/09/01 04:18:09;;;;;;;5.50;3.38;;;;;;;;;;5012338;28;20061;-79
2022/09/01 04:20:46;;;;;;;6.65;3.17;;;;;;;;;;5008591;28;20029;-80
2022/09/01 04:23:25;;;;;;;7.65;3.53;;;;;;;;;;5017448;28;20053;-80
2022/09/01 04:25:52;;;;;;;5.18;3.17;;;;;;;;;;5017766;28;20044;-80
2022/09/01 04:28:23;;;;;;;5.13;3.10;;;;;;;;;;5011078;28;20022;-80
2022/09/01 04:30:54;;;;;;;6.68;3.70;;;;;;;;;;5017368;28;20038;-80
2022/09/01 04:33:21;;;;;;;5.75;3.40;;;;;;;;;;5019846;28;20022;-80
2022/09/01 04:35:49;;;;;;;8.00;3.20;;;;;;;;;;5010812;28;20114;-80
2022/09/01 04:38:16;;;;;;;7.25;2.85;;;;;;;;;;4992519;28;20049;-80
2022/09/01 04:40:43;;;;;;;8.30;3.63;;;;;;;;;;5013995;28;20053;-80
2022/09/01 04:43:09;;;;;;;9.38;3.83;;;;;;;;;;5021137;28;20037;-79
2022/09/01 04:45:36;;;;;;;7.38;3.38;;;;;;;;;;5017659;28;20081;-79
2022/09/01 04:48:04;;;;;;;6.50;3.17;;;;;;;;;;4999628;28;20018;-80
2022/09/01 04:50:59;;;;;;;5.55;3.40;;;;;;;;;;5020792;28;20022;-80
2022/09/01 04:53:28;;;;;;;6.82;3.83;;;;;;;;;;5020243;28;20493;-80
2022/09/01 04:55:54;;;;;;;5.68;2.85;;;;;;;;;;5004111;28;20045;-79
2022/09/01 04:58:21;;;;;;;7.43;2.75;;;;;;;;;;5017056;28;20382;-81
2022/09/01 05:00:50;;;;;;;5.00;2.92;;;;;;;;;;5019711;28;20030;-80
2022/09/01 05:03:20;;;;;;;5.82;3.25;;;;;;;;;;5017162;28;20022;-80
2022/09/01 05:05:46;;;;;;;5.32;2.67;;;;;;;;;;5019037;28;20553;-79
2022/09/01 05:08:14;;;;;;;6.28;2.67;;;;;;;;;;5007435;28;20069;-79
2022/09/01 05:11:06;;;;;;;5.03;2.80;;;;;;;;;;5000979;28;20371;-78
2022/09/01 05:13:37;;;;;;;6.70;3.03;;;;;;;;;;5004151;28;20457;-79
2022/09/01 05:16:13;;;;;;;5.07;2.83;;;;;;;;;;5018378;28;20045;-79
2022/09/01 05:18:44;;;;;;;6.93;2.95;;;;;;;;;;5000229;28;20133;-79
2022/09/01 05:21:11;;;;;;;6.20;3.10;;;;;;;;;;5002608;28;20022;-79
2022/09/01 05:23:41;;;;;;;6.50;2.95;;;;;;;;;;4996394;28;20022;-79
2022/09/01 05:26:22;;;;;;;6.55;2.70;;;;;;;;;;5005869;28;20026;-78
2022/09/01 05:28:52;;;;;;;6.07;2.65;;;;;;;;;;5004743;28;20028;-79
2022/09/01 05:31:19;;;;;;;4.43;2.85;;;;;;;;;;5022958;28;20022;-79
2022/09/01 05:33:52;;;;;;;6.10;2.35;;;;;;;;;;5006511;28;20037;-79
2022/09/01 05:36:19;;;;;;;5.28;2.50;;;;;;;;;;5018100;28;20086;-80
2022/09/01 05:38:47;;;;;;;5.97;2.25;;;;;;;;;;5020670;28;20029;-79
2022/09/01 05:41:14;;;;;;;4.63;2.35;;;;;;;;;;5014436;28;21342;-80
2022/09/01 05:43:48;;;;;;;5.55;2.38;;;;;;;;;;5013903;28;20101;-79
2022/09/01 05:46:15;;;;;;;4.50;2.22;;;;;;;;;;5015639;28;20037;-79
2022/09/01 05:48:48;;;;;;;4.07;2.10;;;;;;;;;;5017854;28;20029;-79
2022/09/01 05:51:18;;;;;;;4.47;2.10;;;;;;;;;;5010102;28;20057;-78
2022/09/01 05:53:45;;;;;;;5.03;2.10;;;;;;;;;;5001868;28;20125;-79
2022/09/01 05:56:13;;;;;;;4.78;2.83;;;;;;;;;;5013967;28;20068;-79
2022/09/01 05:58:44;;;;;;;6.05;2.38;;;;;;;;;;5015794;28;20076;-80
2022/09/01 06:01:15;;;;;;;4.13;2.30;;;;;;;;;;5016866;28;20449;-79
2022/09/01 06:03:43;;;;;;;5.07;2.30;;;;;;;;;;5018280;28;20018;-79
2022/09/01 06:06:11;;;;;;;4.70;2.20;;;;;;;;;;5017870;28;20145;-80
2022/09/01 06:08:37;;;;;;;4.90;2.28;;;;;;;;;;5015574;28;20022;-79
2022/09/01 06:11:11;;;;;;;7.40;2.60;;;;;;;;;;5009632;28;20046;-79
2022/09/01 06:13:38;;;;;;;4.57;2.10;;;;;;;;;;5001563;28;20022;-79
2022/09/01 06:16:04;;;;;;;4.72;2.20;;;;;;;;;;5000629;28;20029;-78
2022/09/01 06:18:33;;;;;;;4.50;2.22;;;;;;;;;;5021021;28;20105;-79
2022/09/01 06:20:59;;;;;;;4.72;2.10;;;;;;;;;;5021195;28;20423;-80
2022/09/01 06:23:25;;;;;;;5.00;2.20;;;;;;;;;;5001859;28;20080;-79
2022/09/01 06:25:51;;;;;;;4.47;1.92;;;;;;;;;;5013404;28;20030;-79
2022/09/01 06:28:20;;;;;;;4.45;2.63;;;;;;;;;;5016505;28;20022;-79
2022/09/01 06:30:47;;;;;;;4.93;2.28;;;;;;;;;;5016524;28;20390;-80
2022/09/01 06:33:14;;;;;;;5.10;2.00;;;;;;;;;;4993014;28;20530;-79
2022/09/01 06:35:41;;;;;;;5.50;2.55;;;;;;;;;;5010076;28;20033;-78
2022/09/01 06:38:08;;;;;;;4.95;2.20;;;;;;;;;;4997840;28;20677;-80
2022/09/01 06:40:38;;;;;;;5.35;2.20;;;;;;;;;;5002053;28;20034;-79
2022/09/01 06:43:06;;;;;;;4.80;2.28;;;;;;;;;;4991106;28;20037;-78
2022/09/01 06:45:33;;;;;;;4.22;2.00;;;;;;;;;;5015198;28;20076;-79
2022/09/01 06:48:00;;;;;;;4.85;2.22;;;;;;;;;;4999192;28;20569;-78
2022/09/01 06:50:26;;;;;;;5.10;2.00;;;;;;;;;;5015140;28;20089;-79
2022/09/01 06:53:00;;;;;;;4.75;2.10;;;;;;;;;;5015929;28;20105;-79
2022/09/01 06:55:30;;;;;;;4.68;1.88;;;;;;;;;;5017125;28;20022;-79
2022/09/01 06:57:57;;;;;;;4.28;2.20;;;;;;;;;;5019496;28;20028;-79
2022/09/01 07:00:23;;;;;;;4.72;1.98;;;;;;;;;;5017137;28;20135;-79
2022/09/01 07:02:54;;;;;;;5.28;1.90;;;;;;;;;;5019099;28;20514;-78
2022/09/01 07:05:20;;;;;;;5.15;2.10;;;;;;;;;;5018556;28;20044;-78
2022/09/01 07:07:49;;;;;;;4.13;1.80;;;;;;;;;;5018855;28;20032;-78
2022/09/01 07:10:19;;;;;;;4.55;2.10;;;;;;;;;;5012027;28;20021;-79
2022/09/01 07:12:46;;;;;;;4.03;1.60;;;;;;;;;;5019137;28;20050;-78
2022/09/01 07:15:16;;;;;;;4.75;2.17;;;;;;;;;;5010086;28;20014;-78
2022/09/01 07:17:48;;;;;;;3.58;1.70;;;;;;;;;;5012795;28;20038;-79
2022/09/01 07:20:15;;;;;;;4.05;1.83;;;;;;;;;;4991257;28;20057;-80
2022/09/01 07:22:41;;;;;;;4.55;1.50;;;;;;;;;;5011858;28;20026;-79
2022/09/01 07:25:11;;;;;;;5.63;2.08;;;;;;;;;;5013184;28;20033;-79
2022/09/01 07:27:37;;;;;;;4.68;1.90;;;;;;;;;;5009027;28;20537;-79
2022/09/01 07:30:08;;;;;;;4.18;2.25;;;;;;;;;;5001805;28;20033;-79
2022/09/01 07:32:34;;;;;;;3.53;1.80;;;;;;;;;;5012827;28;20156;-79
2022/09/01 07:35:01;;;;;;;4.50;1.92;;;;;;;;;;5012968;28;20026;-78
2022/09/01 07:37:27;;;;;;;4.03;2.00;;;;;;;;;;4996380;28;20544;-79
2022/09/01 07:39:54;;;;;;;4.35;1.90;;;;;;;;;;5012690;28;20033;-78
2022/09/01 07:42:20;;;;;;;3.70;1.77;;;;;;;;;;5013456;28;20318;-78
2022/09/01 07:44:47;;;;;;;4.13;1.73;;;;;;;;;;5011805;28;20405;-79
2022/09/01 07:47:14;;;;;;;4.05;1.60;;;;;;;;;;5011876;28;20030;-80
2022/09/01 07:49:41;;;;;;;4.80;1.85;;;;;;;;;;5015848;28;20026;-78
2022/09/01 07:52:07;;;;;;;4.82;1.60;;;;;;;;;;5008405;28;20030;-80
2022/09/01 08:00:14;;;;;;;3.88;1.60;;;;;;;;;;4981714;28;20092;-79
2022/09/01 08:02:42;;;;;;;3.92;1.65;;;;;;;;;;5007426;28;20544;-80
2022/09/01 08:05:09;;;;;;;4.70;1.80;;;;;;;;;;4990005;28;20090;-80
2022/09/01 08:07:36;;;;;;;4.22;1.67;;;;;;;;;;4998504;28;20069;-79
2022/09/01 08:10:03;;;;;;;3.58;1.42;;;;;;;;;;5002818;28;20373;-79
2022/09/01 08:12:29;;;;;;;3.28;1.50;;;;;;;;;;5003129;28;20371;-80
2022/09/01 08:14:55;;;;;;;3.20;1.35;;;;;;;;;;5002777;28;20049;-79
2022/09/01 08:17:21;;;;;;;3.47;1.40;;;;;;;;;;5003642;28;20034;-79
2022/09/01 08:19:47;;;;;;;3.65;1.40;;;;;;;;;;4999412;28;20026;-80
2022/09/01 08:22:13;;;;;;;4.20;1.30;;;;;;;;;;5001827;28;20069;-79
2022/09/01 08:24:40;;;;;;;4.55;1.48;;;;;;;;;;5000157;28;20095;-79
2022/09/01 08:27:07;;;;;;;2.60;1.15;;;;;;;;;;4996019;28;20031;-78
2022/09/01 08:29:33;;;;;;;4.03;1.20;;;;;;;;;;4982643;28;20394;-79
2022/09/01 08:31:59;;;;;;;3.70;1.45;;;;;;;;;;4985937;28;20026;-79
2022/09/01 08:34:25;;;;;;;3.35;1.55;;;;;;;;;;5002337;28;20018;-79
2022/09/01 08:36:51;;;;;;;3.50;1.48;;;;;;;;;;4996029;28;20030;-81
2022/09/01 08:39:18;;;;;;;3.20;1.30;;;;;;;;;;4999514;28;20041;-79
2022/09/01 08:41:49;;;;;;;3.95;1.20;;;;;;;;;;4988500;28;20065;-80
2022/09/01 08:44:38;;;;;;;2.95;1.40;;;;;;;;;;4983740;28;20035;-79
2022/09/01 08:47:09;;;;;;;3.85;1.30;;;;;;;;;;4993950;28;20493;-79
2022/09/01 08:49:36;;;;;;;3.10;1.00;;;;;;;;;;5000049;28;20023;-79
2022/09/01 08:52:02;;;;;;;2.97;1.27;;;;;;;;;;4999704;28;20085;-80
2022/09/01 08:54:31;;;;;;;4.35;1.30;;;;;;;;;;5000496;28;20117;-78
2022/09/01 08:57:00;;;;;;;3.50;1.35;;;;;;;;;;4998389;28;20049;-79
2022/09/01 08:59:27;;;;;;;2.97;1.30;;;;;;;;;;4995982;28;20090;-79
2022/09/01 09:02:12;;;;;;;4.32;1.20;;;;;;;;;;5003007;28;20041;-79
2022/09/01 09:05:08;;;;;;;4.63;1.67;;;;;;;;;;4996263;28;20034;-78
2022/09/01 09:07:37;;;;;;;3.50;1.40;;;;;;;;;;4974435;28;20101;-78
2022/09/01 09:10:03;;;;;;;3.40;1.30;;;;;;;;;;5000355;28;20322;-79
2022/09/01 09:12:35;;;;;;;3.72;1.50;;;;;;;;;;4990563;28;20025;-78
2022/09/01 09:15:09;;;;;;;3.45;1.45;;;;;;;;;;4994869;28;20018;-78
2022/09/01 09:17:38;;;;;;;4.22;1.50;;;;;;;;;;4992883;28;20022;-78
2022/09/01 09:20:05;;;;;;;4.80;1.60;;;;;;;;;;5000410;28;20077;-78
2022/09/01 09:22:32;;;;;;;3.78;1.60;;;;;;;;;;4998428;28;20030;-78
2022/09/01 09:25:08;;;;;;;3.95;1.40;;;;;;;;;;4992005;28;20612;-79
2022/09/01 09:27:36;;;;;;;4.00;1.52;;;;;;;;;;4992287;28;20022;-79
2022/09/01 09:30:05;;;;;;;3.75;1.50;;;;;;;;;;4998202;28;20039;-79
2022/09/01 09:32:49;;;;;;;4.03;1.45;;;;;;;;;;4999307;28;20030;-79
2022/09/01 09:35:29;;;;;;;3.75;1.38;;;;;;;;;;4996579;28;20081;-78
2022/09/01 09:37:55;;;;;;;3.50;1.48;;;;;;;;;;4995343;28;20030;-78
2022/09/01 09:40:23;;;;;;;3.47;1.33;;;;;;;;;;4996514;28;20509;-79
2022/09/01 09:42:56;;;;;;;3.45;1.48;;;;;;;;;;4997767;28;20026;-79
2022/09/01 09:45:23;;;;;;;3.90;1.40;;;;;;;;;;4993263;28;20035;-79
2022/09/01 09:47:49;;;;;;;3.90;1.40;;;;;;;;;;4992840;28;20030;-78
2022/09/01 09:50:24;;;;;;;3.63;1.30;;;;;;;;;;4993486;28;20520;-78
2022/09/01 09:52:51;;;;;;;4.05;1.27;;;;;;;;;;4977740;28;20038;-78
2022/09/01 09:55:25;;;;;;;2.97;1.17;;;;;;;;;;4983582;28;20031;-79
2022/09/01 09:57:54;;;;;;;3.25;1.30;;;;;;;;;;4995421;28;20022;-78
2022/09/01 10:00:22;;;;;;;4.85;1.70;;;;;;;;;;4997196;28;20038;-78
2022/09/01 10:03:02;;;;;;;4.50;1.50;;;;;;;;;;4996849;28;20027;-79
2022/09/01 10:05:28;;;;;;;3.08;1.23;;;;;;;;;;4994638;28;20054;-79
2022/09/01 10:07:55;;;;;;;3.65;1.30;;;;;;;;;;4990377;28;20062;-78
2022/09/01 10:10:41;;;;;;;5.05;1.40;;;;;;;;;;4997712;28;20053;-78
2022/09/01 10:13:09;;;;;;;3.15;1.20;;;;;;;;;;4994179;28;20034;-79
2022/09/01 10:15:36;;;;;;;4.40;1.40;;;;;;;;;;4996873;28;20076;-79
2022/09/01 10:18:09;;;;;;;3.70;1.25;;;;;;;;;;4997183;28;20573;-79
2022/09/01 10:20:38;;;;;;;4.07;1.40;;;;;;;;;;4997020;28;20099;-78
2022/09/01 10:23:04;;;;;;;3.45;1.23;;;;;;;;;;4995949;28;20038;-78
2022/09/01 10:25:32;;;;;;;3.70;1.63;;;;;;;;;;4994964;28;20035;-77
2022/09/01 10:28:01;;;;;;;3.28;1.58;;;;;;;;;;4986847;28;20038;-78
2022/09/01 10:30:28;;;;;;;3.67;1.55;;;;;;;;;;4976560;28;20015;-78
2022/09/01 10:32:55;;;;;;;3.55;1.40;;;;;;;;;;4976336;28;20035;-78
2022/09/01 10:35:24;;;;;;;3.17;1.27;;;;;;;;;;4975182;28;20073;-79
2022/09/01 10:37:51;;;;;;;3.30;1.40;;;;;;;;;;4976611;28;20081;-78
2022/09/01 10:40:39;;;;;;;4.43;1.20;;;;;;;;;;4977428;28;20022;-81
2022/09/01 10:43:20;;;;;;;2.95;1.48;;;;;;;;;;4978781;28;20394;-80
2022/09/01 10:45:46;;;;;;;3.55;1.80;;;;;;;;;;4977705;28;20113;-78
2022/09/01 10:48:19;;;;;;;4.68;1.50;;;;;;;;;;4987060;28;20070;-79
2022/09/01 10:50:46;;;;;;;3.55;1.50;;;;;;;;;;4977566;28;20027;-79
2022/09/01 10:53:32;;;;;;;2.85;1.30;;;;;;;;;;4977625;28;20023;-79
2022/09/01 10:56:03;;;;;;;2.97;1.30;;;;;;;;;;4974782;28;20077;-77
2022/09/01 10:58:41;;;;;;;3.35;1.45;;;;;;;;;;4985402;28;20088;-78
2022/09/01 11:01:08;;;;;;;3.15;1.30;;;;;;;;;;4993958;28;20025;-78
2022/09/01 11:03:38;;;;;;;3.63;1.40;;;;;;;;;;4992473;28;20026;-77
2022/09/01 11:06:08;;;;;;;4.78;1.50;;;;;;;;;;4992870;28;20573;-78
2022/09/01 11:08:34;;;;;;;2.47;1.20;;;;;;;;;;4991258;28;20026;-77
2022/09/01 11:11:04;;;;;;;3.22;1.38;;;;;;;;;;4993613;28;20052;-77
2022/09/01 11:13:47;;;;;;;4.32;1.60;;;;;;;;;;4993247;28;20030;-77
2022/09/01 11:16:31;;;;;;;3.53;1.63;;;;;;;;;;4993276;28;20049;-77
2022/09/01 11:19:16;;;;;;;4.70;1.65;;;;;;;;;;4992410;28;20033;-77
2022/09/01 11:21:42;;;;;;;3.38;1.35;;;;;;;;;;4991616;28;20022;-77
2022/09/01 11:24:27;;;;;;;3.63;1.23;;;;;;;;;;4992946;28;20026;-77
2022/09/01 11:26:53;;;;;;;4.38;1.55;;;;;;;;;;4993395;28;20073;-77
2022/09/01 11:29:38;;;;;;;2.85;1.40;;;;;;;;;;4990814;28;20093;-78
2022/09/01 11:32:05;;;;;;;3.92;1.50;;;;;;;;;;4992675;28;20026;-77
2022/09/01 11:34:31;;;;;;;4.30;1.40;;;;;;;;;;4992280;28;20045;-79
2022/09/01 11:36:59;;;;;;;2.97;1.30;;;;;;;;;;4973485;28;20487;-77
2022/09/01 11:39:34;;;;;;;3.58;1.30;;;;;;;;;;4991947;28;20026;-78
2022/09/01 11:42:00;;;;;;;4.53;1.60;;;;;;;;;;4992596;28;20037;-78
2022/09/01 11:44:32;;;;;;;4.05;1.30;;;;;;;;;;4992436;28;20473;-78
2022/09/01 11:47:01;;;;;;;2.85;1.10;;;;;;;;;;4992831;28;20085;-77
2022/09/01 11:49:32;;;;;;;3.25;1.38;;;;;;;;;;4989106;28;20018;-77
2022/09/01 11:52:00;;;;;;;2.85;1.38;;;;;;;;;;4991478;28;20121;-77
2022/09/01 11:54:28;;;;;;;3.05;1.25;;;;;;;;;;4991681;28;20018;-77
2022/09/01 11:56:54;;;;;;;4.05;1.42;;;;;;;;;;4991614;28;20034;-79
2022/09/01 11:59:30;;;;;;;3.50;1.30;;;;;;;;;;4990645;28;20054;-77
2022/09/01 12:01:57;;;;;;;3.15;1.10;;;;;;;;;;4992650;28;20069;-77
2022/09/01 12:04:26;;;;;;;2.90;1.10;;;;;;;;;;4990506;28;20505;-78
2022/09/01 12:06:57;;;;;;;3.33;1.30;;;;;;;;;;4990082;28;20023;-77
2022/09/01 12:09:31;;;;;;;3.70;1.33;;;;;;;;;;4978446;28;20169;-77
2022/09/01 12:11:57;;;;;;;4.25;1.35;;;;;;;;;;4974011;28;20105;-78
2022/09/01 12:14:24;;;;;;;3.28;1.35;;;;;;;;;;4985304;28;20018;-79
2022/09/01 12:16:58;;;;;;;3.53;1.30;;;;;;;;;;4988641;28;20038;-78
2022/09/01 12:19:26;;;;;;;2.40;1.08;;;;;;;;;;4980965;28;20398;-78
2022/09/01 12:22:00;;;;;;;3.00;1.15;;;;;;;;;;4986277;28;20104;-78
2022/09/01 12:24:26;;;;;;;3.80;1.20;;;;;;;;;;4988102;28;20497;-78
2022/09/01 12:26:56;;;;;;;2.60;1.10;;;;;;;;;;4992379;28;20037;-77
2022/09/01 12:29:22;;;;;;;4.28;1.40;;;;;;;;;;4992745;28;20065;-77
2022/09/01 12:31:49;;;;;;;3.00;1.30;;;;;;;;;;4991834;28;20018;-77
2022/09/01 12:34:34;;;;;;;3.10;1.30;;;;;;;;;;4980289;28;20023;-76
2022/09/01 12:37:08;;;;;;;3.88;1.40;;;;;;;;;;4979886;28;20109;-76
2022/09/01 12:39:44;;;;;;;3.70;1.25;;;;;;;;;;4976156;28;20022;-77
2022/09/01 12:42:37;;;;;;;3.40;1.02;;;;;;;;;;4975572;28;20113;-78
2022/09/01 12:45:04;;;;;;;3.72;1.30;;;;;;;;;;4984985;28;20097;-78
2022/09/01 12:47:36;;;;;;;3.92;1.27;;;;;;;;;;4991054;28;20065;-77
2022/09/01 12:50:08;;;;;;;3.38;1.33;;;;;;;;;;4991772;28;20033;-77
2022/09/01 12:52:35;;;;;;;3.35;1.30;;;;;;;;;;4981817;28;20046;-77
2022/09/01 12:55:01;;;;;;;3.30;1.42;;;;;;;;;;4976005;28;20438;-76
2022/09/01 12:57:29;;;;;;;3.45;1.20;;;;;;;;;;4991183;28;20405;-77
2022/09/01 13:00:25;;;;;;;3.95;1.48;;;;;;;;;;4994566;28;20141;-78
2022/09/01 13:03:10;;;;;;;3.28;1.48;;;;;;;;;;4983486;28;20070;-77
2022/09/01 13:05:43;;;;;;;3.30;1.40;;;;;;;;;;4993683;28;20494;-77
2022/09/01 13:08:13;;;;;;;3.25;1.40;;;;;;;;;;4976818;28;20031;-77
2022/09/01 13:10:42;;;;;;;3.10;1.40;;;;;;;;;;4986874;28;20117;-79
2022/09/01 13:13:09;;;;;;;2.90;1.33;;;;;;;;;;4995936;28;20049;-77
2022/09/01 13:15:37;;;;;;;3.58;1.17;;;;;;;;;;4995717;28;20026;-78
2022/09/01 13:18:03;;;;;;;3.83;1.30;;;;;;;;;;4992973;28;20030;-78
2022/09/01 13:20:29;;;;;;;2.65;1.20;;;;;;;;;;4995140;28;20030;-79
2022/09/01 13:22:55;;;;;;;2.70;1.20;;;;;;;;;;4995355;28;20033;-78
2022/09/01 13:25:22;;;;;;;2.65;1.17;;;;;;;;;;4994073;28;20073;-80
2022/09/01 13:27:48;;;;;;;2.22;1.00;;;;;;;;;;4992588;28;20037;-78
2022/09/01 13:30:33;;;;;;;4.30;1.40;;;;;;;;;;4989344;28;20114;-77
2022/09/01 13:32:59;;;;;;;3.67;1.50;;;;;;;;;;4990696;28;20033;-77
2022/09/01 13:35:25;;;;;;;4.65;1.48;;;;;;;;;;4990526;28;20030;-77
2022/09/01 13:37:51;;;;;;;2.67;1.20;;;;;;;;;;4993810;28;20081;-77
2022/09/01 13:40:18;;;;;;;2.65;1.10;;;;;;;;;;4994725;28;20425;-77
2022/09/01 13:42:48;;;;;;;3.15;1.00;;;;;;;;;;4995026;28;20033;-77
2022/09/01 13:45:16;;;;;;;3.30;1.13;;;;;;;;;;4991667;28;20030;-78
2022/09/01 13:47:43;;;;;;;3.25;1.27;;;;;;;;;;4992300;28;20482;-77
2022/09/01 13:50:12;;;;;;;4.45;1.58;;;;;;;;;;4994442;28;20023;-77
2022/09/01 13:52:42;;;;;;;3.38;1.40;;;;;;;;;;4993941;28;20112;-77
2022/09/01 13:55:12;;;;;;;3.78;1.35;;;;;;;;;;4988603;28;20541;-76
2022/09/01 13:57:38;;;;;;;4.80;1.40;;;;;;;;;;4990141;28;20038;-77
2022/09/01 14:00:09;;;;;;;4.90;1.30;;;;;;;;;;4990371;28;20054;-77
2022/09/01 14:02:36;;;;;;;5.95;1.30;;;;;;;;;;4981078;28;20031;-78
2022/09/01 14:05:02;;;;;;;2.83;1.00;;;;;;;;;;4988275;28;20022;-78
2022/09/01 14:07:31;;;;;;;2.75;1.10;;;;;;;;;;4992258;28;20026;-77
2022/09/01 14:09:57;;;;;;;3.10;1.20;;;;;;;;;;4990902;28;20101;-76
2022/09/01 14:12:23;;;;;;;3.22;1.20;;;;;;;;;;4992825;28;20121;-78
2022/09/01 14:14:49;;;;;;;2.75;0.95;;;;;;;;;;5004295;28;20033;-78
2022/09/01 14:17:15;;;;;;;2.88;1.02;;;;;;;;;;4993572;28;20030;-78
2022/09/01 14:19:41;;;;;;;2.80;0.98;;;;;;;;;;4995132;28;20030;-78
2022/09/01 14:22:08;;;;;;;3.58;1.10;;;;;;;;;;4991931;28;20106;-77
2022/09/01 14:24:35;;;;;;;5.65;1.88;;;;;;;;;;4980684;28;20066;-78
2022/09/01 14:27:01;;;;;;;2.63;1.10;;;;;;;;;;4993873;28;20478;-78
2022/09/01 14:29:28;;;;;;;3.53;1.00;;;;;;;;;;5000049;28;20112;-77
2022/09/01 14:31:56;;;;;;;3.05;1.20;;;;;;;;;;4990679;28;20049;-77
2022/09/01 14:34:23;;;;;;;2.33;1.20;;;;;;;;;;4991203;28;20024;-77
2022/09/01 14:36:50;;;;;;;2.55;1.00;;;;;;;;;;4991504;28;20026;-79
2022/09/01 14:39:17;;;;;;;3.00;1.00;;;;;;;;;;4994524;28;20042;-77
2022/09/01 14:41:42;;;;;;;3.85;1.00;;;;;;;;;;5006296;28;20038;-77
2022/09/01 14:44:08;;;;;;;3.42;0.80;;;;;;;;;;4990449;28;20052;-76
2022/09/01 14:46:35;;;;;;;3.00;1.02;;;;;;;;;;4996732;28;20070;-77
2022/09/01 14:49:02;;;;;;;2.20;0.80;;;;;;;;;;4991830;28;20014;-77
2022/09/01 14:51:29;;;;;;;3.03;1.10;;;;;;;;;;4996766;28;20034;-78
2022/09/01 14:53:55;;;;;;;3.03;1.25;;;;;;;;;;4994436;28;20022;-77
2022/09/01 14:56:22;;;;;;;2.30;0.90;;;;;;;;;;4993597;28;20026;-79
2022/09/01 14:58:49;;;;;;;2.15;0.90;;;;;;;;;;4992141;28;20098;-77
2022/09/01 15:01:16;;;;;;;3.28;1.10;;;;;;;;;;4990905;28;20102;-78
2022/09/01 15:03:43;;;;;;;2.45;0.90;;;;;;;;;;4975697;28;20030;-77
2022/09/01 15:06:12;;;;;;;2.72;1.02;;;;;;;;;;4993971;28;20112;-77